Terminal Aerodrome Forecast
Issued by NWS Quad Cities IA IL

Home | Current Version | Previous Version | Text Only | Print | Product List | Glossary On
Versions: 1 2 3 4 5 6 7 8 9 10 11 12 13 14 15 16 17
000
FTUS43 KDVN 051130
TAFDBQ
TAF
KDBQ 051130Z 0512/0612 18009KT P6SM SCT035 BKN200
      TEMPO 0512/0514 16005KT 4SM BR
     FM060600 15008KT 5SM BR SCT150=

USA.gov is the U.S. government's official web portal to all federal, state and local government web resources and services.